createdAt,value
2023-09-30T00:01:14.656Z,3.80
2023-09-30T00:03:41.580Z,4.72
2023-09-30T00:06:08.183Z,3.83
2023-09-30T00:08:34.796Z,3.70
2023-09-30T00:11:01.373Z,4.40
2023-09-30T00:13:28.204Z,4.03
2023-09-30T00:15:55.021Z,3.70
2023-09-30T00:18:21.808Z,3.55
2023-09-30T00:20:48.566Z,3.92
2023-09-30T00:23:15.148Z,4.50
2023-09-30T00:25:41.844Z,4.57
2023-09-30T00:28:08.524Z,6.13
2023-09-30T00:30:35.161Z,4.63
2023-09-30T00:33:01.827Z,5.25
2023-09-30T00:35:28.449Z,5.32
2023-09-30T00:37:55.257Z,4.55
2023-09-30T00:40:22.468Z,4.95
2023-09-30T00:42:49.060Z,5.28
2023-09-30T00:47:41.720Z,4.18
2023-09-30T00:50:09.629Z,5.20
2023-09-30T00:52:37.307Z,5.03
2023-09-30T00:55:04.452Z,5.30
2023-09-30T00:59:59.620Z,4.30
2023-09-30T01:02:26.688Z,5.07
2023-09-30T01:07:21.252Z,4.50
2023-09-30T01:09:49.523Z,4.38
2023-09-30T01:12:16.057Z,4.80
2023-09-30T01:14:43.192Z,4.60
2023-09-30T01:17:10.094Z,4.60
2023-09-30T01:19:36.869Z,4.97
2023-09-30T01:22:03.496Z,4.20
2023-09-30T01:24:30.898Z,4.18
2023-09-30T01:26:58.231Z,4.05
2023-09-30T01:31:51.517Z,3.83
2023-09-30T01:34:18.267Z,4.30
2023-09-30T01:36:45.256Z,3.53
2023-09-30T01:39:12.595Z,3.67
2023-09-30T01:41:40.912Z,3.33
2023-09-30T01:44:08.319Z,3.60
2023-09-30T01:46:35.033Z,3.75
2023-09-30T01:49:03.229Z,3.63
2023-09-30T01:51:30.151Z,3.90
2023-09-30T01:53:57.057Z,3.58
2023-09-30T01:56:23.863Z,4.03
2023-09-30T01:58:50.599Z,4.03
2023-09-30T02:01:17.281Z,3.80
2023-09-30T02:03:44.017Z,4.43
2023-09-30T02:06:10.751Z,3.80
2023-09-30T02:08:37.354Z,5.20
2023-09-30T02:11:04.422Z,5.00
2023-09-30T02:13:34.045Z,4.90
2023-09-30T02:16:00.762Z,4.47
2023-09-30T02:18:27.385Z,4.57
2023-09-30T02:20:53.922Z,4.70
2023-09-30T02:23:20.573Z,4.32
2023-09-30T02:25:47.069Z,4.75
2023-09-30T02:28:13.699Z,3.95
2023-09-30T02:30:40.271Z,3.88
2023-09-30T02:33:06.938Z,4.13
2023-09-30T02:35:33.602Z,4.20
2023-09-30T02:38:04.766Z,3.53
2023-09-30T02:40:31.483Z,3.67
2023-09-30T02:42:57.998Z,4.28
2023-09-30T02:45:25.006Z,4.78
2023-09-30T02:47:51.657Z,4.55
2023-09-30T02:50:18.245Z,3.83
2023-09-30T02:52:45.523Z,4.43
2023-09-30T02:55:13.518Z,3.85
2023-09-30T02:57:40.515Z,3.83
2023-09-30T03:00:10.438Z,3.90
2023-09-30T03:02:37.536Z,3.50
2023-09-30T03:05:07.340Z,3.78
2023-09-30T03:07:33.921Z,3.63
2023-09-30T03:10:02.907Z,4.80
2023-09-30T03:12:29.489Z,4.28
2023-09-30T03:14:55.997Z,3.80
2023-09-30T03:17:22.549Z,4.93
2023-09-30T03:19:49.108Z,4.55
2023-09-30T03:22:15.667Z,4.07
2023-09-30T03:24:42.292Z,4.00
2023-09-30T03:27:09.418Z,4.57
2023-09-30T03:32:05.951Z,4.60
2023-09-30T03:34:32.556Z,4.10
2023-09-30T03:36:59.103Z,4.55
2023-09-30T03:39:26.053Z,4.50
2023-09-30T03:41:52.683Z,4.38
2023-09-30T03:44:19.266Z,3.72
2023-09-30T03:46:46.948Z,4.00
2023-09-30T03:49:13.459Z,3.85
2023-09-30T03:51:43.532Z,3.80
2023-09-30T03:54:10.187Z,4.32
2023-09-30T03:56:36.787Z,4.05
2023-09-30T03:59:05.052Z,3.30
2023-09-30T04:01:31.711Z,3.83
2023-09-30T04:03:58.588Z,3.58
2023-09-30T04:06:25.486Z,3.67
2023-09-30T04:08:52.092Z,3.28
2023-09-30T04:11:18.656Z,4.10
2023-09-30T04:13:45.933Z,3.40
2023-09-30T04:18:39.475Z,3.13
2023-09-30T04:21:06.096Z,3.90
2023-09-30T04:23:32.733Z,3.40
2023-09-30T04:25:59.416Z,3.65
2023-09-30T04:28:26.109Z,3.55
2023-09-30T04:30:52.800Z,4.00
2023-09-30T04:33:19.786Z,3.85
2023-09-30T04:38:11.729Z,3.70
2023-09-30T04:40:38.437Z,3.95
2023-09-30T04:43:05.114Z,3.97
2023-09-30T04:45:31.915Z,3.75
2023-09-30T04:47:58.480Z,3.95
2023-09-30T04:50:25.236Z,3.88
2023-09-30T04:52:52.711Z,4.18
2023-09-30T04:55:19.436Z,4.63
2023-09-30T04:57:47.469Z,3.83
2023-09-30T05:00:20.579Z,4.50
2023-09-30T05:02:48.325Z,4.07
2023-09-30T05:05:15.265Z,4.22
2023-09-30T05:07:42.161Z,3.92
2023-09-30T05:10:09.449Z,5.35
2023-09-30T05:15:02.579Z,4.32
2023-09-30T05:17:29.856Z,4.43
2023-09-30T05:20:00.203Z,4.53
2023-09-30T05:22:26.745Z,4.63
2023-09-30T05:24:53.524Z,4.00
2023-09-30T05:27:20.739Z,4.90
2023-09-30T05:34:40.420Z,4.28
2023-09-30T05:37:07.298Z,4.57
2023-09-30T05:39:36.313Z,4.15
2023-09-30T05:42:03.395Z,4.00
2023-09-30T05:44:30.305Z,4.20
2023-09-30T05:46:57.120Z,3.75
2023-09-30T05:49:24.898Z,4.50
2023-09-30T05:51:51.523Z,4.18
2023-09-30T05:54:20.316Z,4.35
2023-09-30T05:56:47.077Z,4.50
2023-09-30T05:59:14.710Z,3.90
2023-09-30T06:01:41.406Z,4.72
2023-09-30T06:04:08.065Z,4.90
2023-09-30T06:06:34.919Z,4.63
2023-09-30T06:09:01.803Z,4.50
2023-09-30T06:11:29.181Z,4.47
2023-09-30T06:13:56.316Z,4.82
2023-09-30T06:18:49.906Z,4.55
2023-09-30T06:21:16.570Z,5.68
2023-09-30T06:23:43.089Z,4.88
2023-09-30T06:26:13.433Z,4.72
2023-09-30T06:28:39.962Z,5.28
2023-09-30T06:31:07.278Z,6.00
2023-09-30T06:33:33.993Z,6.30
2023-09-30T06:36:00.597Z,4.78
2023-09-30T06:38:27.230Z,4.55
2023-09-30T06:40:53.817Z,5.00
2023-09-30T06:43:21.041Z,5.45
2023-09-30T06:45:47.884Z,4.80
2023-09-30T06:50:50.312Z,4.43
2023-09-30T06:53:17.758Z,5.22
2023-09-30T06:55:44.592Z,4.90
2023-09-30T06:58:11.687Z,4.88
2023-09-30T07:00:39.527Z,4.47
2023-09-30T07:03:06.857Z,4.65
2023-09-30T07:05:35.564Z,4.53
2023-09-30T07:08:02.273Z,4.60
2023-09-30T07:10:29.588Z,4.22
2023-09-30T07:12:56.777Z,4.10
2023-09-30T07:15:23.542Z,4.90
2023-09-30T07:17:50.250Z,4.25
2023-09-30T07:20:17.900Z,4.35
2023-09-30T07:22:55.737Z,4.88
2023-09-30T07:25:30.451Z,4.32
2023-09-30T07:27:58.844Z,4.82
2023-09-30T07:30:26.650Z,5.30
2023-09-30T07:32:53.489Z,5.13
2023-09-30T07:35:20.381Z,4.93
2023-09-30T07:37:46.990Z,4.40
2023-09-30T07:40:14.199Z,5.70
2023-09-30T07:42:42.178Z,4.63
2023-09-30T07:45:09.888Z,5.10
2023-09-30T07:47:37.881Z,4.53
2023-09-30T07:50:04.938Z,5.70
2023-09-30T07:52:34.183Z,5.18
2023-09-30T07:55:00.824Z,4.55
2023-09-30T07:57:27.444Z,4.85
2023-09-30T07:59:54.048Z,5.22
2023-09-30T08:02:20.592Z,4.72
2023-09-30T08:04:48.638Z,3.88
2023-09-30T08:07:15.323Z,4.10
2023-09-30T08:09:41.914Z,3.53
2023-09-30T08:12:08.994Z,3.63
2023-09-30T08:14:35.553Z,4.40
2023-09-30T08:17:03.215Z,4.28
2023-09-30T08:19:29.761Z,3.70
2023-09-30T08:21:58.275Z,4.18
2023-09-30T08:24:24.945Z,3.80
2023-09-30T08:26:51.603Z,3.20
2023-09-30T08:29:18.303Z,2.88
2023-09-30T08:34:15.038Z,3.85
2023-09-30T08:36:42.141Z,3.88
2023-09-30T08:39:08.798Z,3.65
2023-09-30T08:44:03.094Z,3.28
2023-09-30T08:46:34.577Z,4.30
2023-09-30T08:49:05.876Z,4.13
2023-09-30T08:51:33.266Z,4.25
2023-09-30T08:54:01.464Z,3.75
2023-09-30T08:56:29.635Z,3.67
2023-09-30T08:58:59.497Z,4.03
2023-09-30T09:01:28.897Z,4.13
2023-09-30T09:03:56.221Z,3.38
2023-09-30T09:06:27.425Z,3.75
2023-09-30T09:08:54.646Z,3.97
2023-09-30T09:11:21.498Z,4.05
2023-09-30T09:13:51.838Z,3.50
2023-09-30T09:16:19.462Z,3.58
2023-09-30T09:18:46.533Z,3.50
2023-09-30T09:21:15.513Z,4.00
2023-09-30T09:23:43.842Z,3.95
2023-09-30T09:26:12.327Z,4.10
2023-09-30T09:28:39.489Z,3.95
2023-09-30T09:31:21.479Z,4.00
2023-09-30T09:33:49.277Z,4.55
2023-09-30T09:36:16.545Z,4.55
2023-09-30T09:38:47.542Z,5.53
2023-09-30T09:41:14.185Z,5.35
2023-09-30T09:43:43.458Z,4.38
2023-09-30T09:46:10.772Z,5.38
2023-09-30T09:48:37.890Z,4.10
2023-09-30T09:51:10.032Z,4.75
2023-09-30T09:53:40.095Z,4.50
2023-09-30T09:56:09.610Z,3.90
2023-09-30T09:58:36.683Z,5.13
2023-09-30T10:01:03.507Z,5.28
2023-09-30T10:03:30.799Z,4.03
2023-09-30T10:05:57.823Z,4.38
2023-09-30T10:08:32.070Z,4.22
2023-09-30T10:10:58.905Z,4.40
2023-09-30T10:13:51.901Z,3.50
2023-09-30T10:16:37.535Z,4.35
2023-09-30T10:19:16.129Z,4.18
2023-09-30T10:22:19.953Z,4.78
2023-09-30T10:24:48.028Z,4.60
2023-09-30T10:27:27.704Z,3.95
2023-09-30T10:30:07.368Z,4.32
2023-09-30T10:32:53.335Z,4.15
2023-09-30T10:35:21.644Z,4.50
2023-09-30T10:37:49.598Z,4.07
2023-09-30T10:40:31.333Z,3.40
2023-09-30T10:42:58.230Z,3.75
2023-09-30T10:45:46.254Z,4.18
2023-09-30T10:48:32.191Z,4.00
2023-09-30T10:51:02.865Z,3.80
2023-09-30T10:53:29.790Z,4.22
2023-09-30T10:55:58.333Z,3.85
2023-09-30T10:58:44.869Z,3.83
2023-09-30T11:01:17.410Z,3.58
2023-09-30T11:03:45.501Z,3.60
2023-09-30T11:06:13.897Z,3.38
2023-09-30T11:08:46.912Z,3.72
2023-09-30T11:11:14.136Z,3.53
2023-09-30T11:13:40.905Z,3.67
2023-09-30T11:16:07.593Z,3.33
2023-09-30T11:18:34.220Z,3.42
2023-09-30T11:21:09.553Z,3.92
2023-09-30T11:23:36.825Z,3.35
2023-09-30T11:26:03.751Z,3.72
2023-09-30T11:28:46.523Z,2.80
2023-09-30T11:31:13.985Z,2.92
2023-09-30T11:33:54.768Z,3.10
2023-09-30T11:36:22.160Z,2.67
2023-09-30T11:38:50.673Z,2.95
2023-09-30T11:41:18.429Z,3.03
2023-09-30T11:44:14.056Z,4.00
2023-09-30T11:46:51.086Z,2.67
2023-09-30T11:49:38.609Z,3.60
2023-09-30T11:52:12.392Z,3.10
2023-09-30T11:54:41.059Z,3.45
2023-09-30T11:57:08.599Z,2.92
2023-09-30T11:59:35.261Z,2.92
2023-09-30T12:04:31.540Z,3.13
2023-09-30T12:06:58.391Z,2.75
2023-09-30T12:09:25.273Z,3.88
2023-09-30T12:11:52.855Z,2.55
2023-09-30T12:14:19.524Z,3.47
2023-09-30T12:16:46.249Z,2.92
2023-09-30T12:19:15.252Z,3.25
2023-09-30T12:21:42.675Z,2.63
2023-09-30T12:24:09.566Z,3.83
2023-09-30T12:26:40.506Z,3.20
2023-09-30T12:29:07.092Z,3.17
2023-09-30T12:31:46.154Z,3.40
2023-09-30T12:34:19.107Z,2.80
2023-09-30T12:36:45.873Z,3.20
2023-09-30T12:39:12.681Z,3.45
2023-09-30T12:41:45.655Z,2.92
2023-09-30T12:44:12.992Z,3.20
2023-09-30T12:46:39.541Z,2.90
2023-09-30T12:49:06.928Z,2.90
2023-09-30T12:51:37.354Z,3.17
2023-09-30T12:54:04.548Z,3.60
2023-09-30T12:56:31.290Z,3.25
2023-09-30T12:58:58.986Z,2.97
2023-09-30T13:01:26.630Z,3.05
2023-09-30T13:03:53.896Z,3.65
2023-09-30T13:06:21.059Z,3.53
2023-09-30T13:11:15.623Z,3.53
2023-09-30T13:13:42.331Z,3.10
2023-09-30T13:16:11.873Z,3.10
2023-09-30T13:18:38.594Z,3.15
2023-09-30T13:21:06.508Z,3.78
2023-09-30T13:23:33.656Z,3.60
2023-09-30T13:26:00.317Z,3.85
2023-09-30T13:28:28.148Z,4.03
2023-09-30T13:30:54.943Z,3.38
2023-09-30T13:33:22.625Z,3.30
2023-09-30T13:35:49.341Z,3.50
2023-09-30T13:38:16.220Z,4.10
2023-09-30T13:40:43.213Z,3.47
2023-09-30T13:43:10.012Z,4.45
2023-09-30T13:45:36.668Z,3.70
2023-09-30T13:48:03.893Z,3.72
2023-09-30T13:50:30.520Z,4.32
2023-09-30T13:52:57.116Z,4.30
2023-09-30T13:55:24.650Z,3.90
2023-09-30T13:57:51.452Z,3.80
2023-09-30T14:00:19.094Z,4.00
2023-09-30T14:02:45.851Z,3.75
2023-09-30T14:05:12.655Z,3.40
2023-09-30T14:07:39.415Z,4.10
2023-09-30T14:10:06.980Z,3.75
2023-09-30T14:12:33.908Z,3.78
2023-09-30T14:15:01.898Z,3.58
2023-09-30T14:17:30.267Z,3.97
2023-09-30T14:19:56.994Z,3.97
2023-09-30T14:22:23.660Z,3.25
2023-09-30T14:24:50.237Z,3.03
2023-09-30T14:27:17.417Z,3.45
2023-09-30T14:29:44.215Z,3.65
2023-09-30T14:32:11.021Z,3.50
2023-09-30T14:34:37.813Z,4.47
2023-09-30T14:37:04.572Z,4.55
2023-09-30T14:39:31.240Z,4.05
2023-09-30T14:41:57.861Z,3.90
2023-09-30T14:44:24.439Z,3.92
2023-09-30T14:46:51.183Z,4.45
2023-09-30T14:49:17.818Z,4.38
2023-09-30T14:51:44.560Z,3.90
2023-09-30T14:54:11.170Z,3.60
2023-09-30T14:56:37.750Z,3.95
2023-09-30T15:01:29.790Z,4.50
2023-09-30T15:03:56.744Z,3.17
2023-09-30T15:06:24.485Z,3.90
2023-09-30T15:08:52.453Z,4.55
2023-09-30T15:11:19.173Z,4.72
2023-09-30T15:13:46.778Z,4.88
2023-09-30T15:16:17.650Z,4.30
2023-09-30T15:18:44.346Z,4.70
2023-09-30T15:21:10.937Z,3.83
2023-09-30T15:23:37.719Z,4.10
2023-09-30T15:26:04.376Z,3.85
2023-09-30T15:28:31.135Z,4.70
2023-09-30T15:30:57.918Z,3.38
2023-09-30T15:33:24.692Z,3.90
2023-09-30T15:35:51.546Z,3.97
2023-09-30T15:38:18.854Z,4.50
2023-09-30T15:40:55.876Z,4.28
2023-09-30T15:43:22.629Z,4.55
2023-09-30T15:45:49.637Z,3.78
2023-09-30T15:48:16.328Z,3.83
2023-09-30T15:50:43.596Z,4.13
2023-09-30T15:53:11.255Z,3.85
2023-09-30T15:55:37.989Z,4.63
2023-09-30T15:58:05.733Z,4.25
2023-09-30T16:00:32.887Z,4.50
2023-09-30T16:02:59.684Z,4.82
2023-09-30T16:05:26.453Z,4.25
2023-09-30T16:07:53.391Z,4.72
2023-09-30T16:10:20.370Z,8.45
2023-09-30T16:12:47.179Z,5.70
2023-09-30T16:15:13.899Z,6.35
2023-09-30T16:17:40.594Z,8.88
2023-09-30T16:20:10.513Z,6.90
2023-09-30T16:22:37.132Z,7.60
2023-09-30T16:25:04.006Z,5.68
2023-09-30T16:27:33.070Z,6.68
2023-09-30T16:29:59.990Z,7.63
2023-09-30T16:32:28.194Z,8.50
2023-09-30T16:34:55.845Z,7.63
2023-09-30T16:37:22.445Z,10.40
2023-09-30T16:39:49.290Z,8.98
2023-09-30T16:42:15.806Z,16.42
2023-09-30T16:47:09.688Z,10.77
2023-09-30T16:49:37.820Z,10.38
2023-09-30T16:54:54.771Z,8.60
2023-09-30T16:59:48.097Z,9.57
2023-09-30T17:02:14.752Z,11.45
2023-09-30T17:07:13.030Z,9.55
2023-09-30T17:09:39.762Z,12.85
2023-09-30T17:12:07.161Z,11.77
2023-09-30T17:14:35.118Z,11.65
2023-09-30T17:17:02.448Z,8.40
2023-09-30T17:19:29.650Z,8.15
2023-09-30T17:21:56.564Z,9.38
2023-09-30T17:24:23.432Z,10.68
2023-09-30T17:26:51.327Z,8.73
2023-09-30T17:29:17.940Z,9.82
2023-09-30T17:31:44.976Z,10.43
2023-09-30T17:34:11.860Z,9.93
2023-09-30T17:36:38.970Z,9.95
2023-09-30T17:39:05.822Z,10.10
2023-09-30T17:41:36.482Z,12.52
2023-09-30T17:44:05.519Z,13.05
2023-09-30T17:46:32.316Z,11.40
2023-09-30T17:48:59.532Z,12.20
2023-09-30T17:51:27.464Z,11.18
2023-09-30T17:53:55.067Z,11.32
2023-09-30T17:56:22.512Z,13.52
2023-09-30T17:58:50.107Z,14.32
2023-09-30T18:01:17.812Z,15.68
2023-09-30T18:03:44.628Z,15.35
2023-09-30T18:08:39.272Z,10.70
2023-09-30T18:11:07.700Z,10.57
2023-09-30T18:13:34.246Z,12.88
2023-09-30T18:16:02.295Z,11.35
2023-09-30T18:18:30.133Z,12.38
2023-09-30T18:20:58.025Z,11.30
2023-09-30T18:23:24.629Z,11.85
2023-09-30T18:25:51.218Z,12.25
2023-09-30T18:28:18.069Z,11.02
2023-09-30T18:30:46.191Z,10.23
2023-09-30T18:33:15.675Z,10.82
2023-09-30T18:38:12.373Z,9.15
2023-09-30T18:40:39.195Z,8.50
2023-09-30T18:45:33.192Z,7.25
2023-09-30T18:47:59.797Z,7.03
2023-09-30T18:50:26.396Z,6.55
2023-09-30T18:52:54.270Z,8.15
2023-09-30T18:55:20.934Z,8.88
2023-09-30T18:57:47.581Z,8.00
2023-09-30T19:00:17.443Z,8.77
2023-09-30T19:02:44.482Z,9.15
2023-09-30T19:05:11.067Z,9.75
2023-09-30T19:07:40.560Z,9.05
2023-09-30T19:10:08.804Z,9.60
2023-09-30T19:12:35.411Z,10.40
2023-09-30T19:15:03.136Z,9.77
2023-09-30T19:17:29.758Z,9.75
2023-09-30T19:19:56.298Z,10.95
2023-09-30T19:22:22.869Z,10.07
2023-09-30T19:24:49.742Z,9.27
2023-09-30T19:29:44.125Z,10.07
2023-09-30T19:32:10.737Z,9.57
2023-09-30T19:34:37.258Z,10.45
2023-09-30T19:37:03.913Z,10.80
2023-09-30T19:39:30.770Z,10.43
2023-09-30T19:41:57.479Z,12.10
2023-09-30T19:44:25.371Z,11.48
2023-09-30T19:46:52.086Z,10.30
2023-09-30T19:49:18.878Z,9.90
2023-09-30T19:51:45.508Z,8.70
2023-09-30T19:54:12.566Z,7.85
2023-09-30T19:56:39.180Z,7.00
2023-09-30T19:59:07.088Z,7.25
2023-09-30T20:01:33.887Z,6.57
2023-09-30T20:04:00.774Z,13.45
2023-09-30T20:08:53.849Z,7.18
2023-09-30T20:11:25.341Z,6.65
2023-09-30T20:13:53.227Z,6.63
2023-09-30T20:16:21.341Z,6.97
2023-09-30T20:18:48.315Z,8.73
2023-09-30T20:23:42.177Z,7.88
2023-09-30T20:26:09.498Z,8.35
2023-09-30T20:31:06.172Z,8.30
2023-09-30T20:33:33.323Z,8.90
2023-09-30T20:35:59.888Z,9.93
2023-09-30T20:38:26.394Z,9.05
2023-09-30T20:40:52.925Z,8.98
2023-09-30T20:43:19.570Z,9.25
2023-09-30T20:45:46.159Z,8.70
2023-09-30T20:48:12.741Z,8.88
2023-09-30T20:50:39.330Z,10.65
2023-09-30T20:53:06.345Z,11.02
2023-09-30T20:55:34.205Z,9.90
2023-09-30T20:58:00.772Z,9.48
2023-09-30T21:00:27.696Z,10.10
2023-09-30T21:05:21.190Z,9.27
2023-09-30T21:07:47.917Z,11.23
2023-09-30T21:10:15.118Z,10.43
2023-09-30T21:12:41.774Z,11.48
2023-09-30T21:15:09.118Z,10.75
2023-09-30T21:17:36.904Z,10.95
2023-09-30T21:20:04.604Z,11.30
2023-09-30T21:22:32.733Z,10.68
2023-09-30T21:24:59.411Z,10.10
2023-09-30T21:27:26.067Z,11.30
2023-09-30T21:29:53.100Z,10.82
2023-09-30T21:34:47.405Z,9.98
2023-09-30T21:37:14.054Z,10.43
2023-09-30T21:39:41.157Z,9.23
2023-09-30T21:42:07.705Z,8.93
2023-09-30T21:44:34.526Z,6.93
2023-09-30T21:47:02.990Z,7.03
2023-09-30T21:49:30.482Z,6.15
2023-09-30T21:51:57.148Z,6.45
2023-09-30T21:54:29.024Z,5.82
2023-09-30T21:56:55.667Z,5.35
2023-09-30T21:59:23.244Z,7.13
2023-09-30T22:01:49.976Z,5.90
2023-09-30T22:04:16.722Z,4.97
2023-09-30T22:06:44.505Z,5.78
2023-09-30T22:09:11.148Z,5.38
2023-09-30T22:11:41.476Z,5.38
2023-09-30T22:14:08.335Z,5.65
2023-09-30T22:16:35.177Z,5.95
2023-09-30T22:21:30.001Z,5.53
2023-09-30T22:23:56.710Z,6.03
2023-09-30T22:26:23.277Z,6.47
2023-09-30T22:28:50.007Z,5.90
2023-09-30T22:31:16.806Z,5.90
2023-09-30T22:33:43.520Z,6.63
2023-09-30T22:36:10.096Z,6.40
2023-09-30T22:38:36.773Z,5.53
2023-09-30T22:41:03.497Z,5.65
2023-09-30T22:43:30.452Z,5.40
2023-09-30T22:48:23.588Z,4.78
2023-09-30T22:50:50.379Z,5.38
2023-09-30T22:53:17.293Z,5.13
2023-09-30T22:55:43.963Z,5.78
2023-09-30T22:58:10.615Z,5.35
2023-09-30T23:00:37.160Z,5.90
2023-09-30T23:03:05.052Z,5.20
2023-09-30T23:05:31.685Z,5.85
2023-09-30T23:07:58.330Z,5.63
2023-09-30T23:10:25.408Z,5.35
2023-09-30T23:12:52.140Z,5.13
2023-09-30T23:15:20.426Z,5.32
2023-09-30T23:17:49.315Z,6.00
2023-09-30T23:20:18.356Z,8.07
2023-09-30T23:22:47.140Z,5.70
2023-09-30T23:25:14.477Z,6.03
2023-09-30T23:27:41.034Z,6.07
2023-09-30T23:30:08.008Z,6.45
2023-09-30T23:32:34.766Z,6.40
2023-09-30T23:35:01.463Z,6.60
2023-09-30T23:37:27.975Z,6.15
2023-09-30T23:39:54.527Z,5.90
2023-09-30T23:42:21.134Z,6.40
2023-09-30T23:44:47.637Z,6.25
2023-09-30T23:47:14.271Z,5.95
2023-09-30T23:49:40.945Z,6.07
2023-09-30T23:52:07.521Z,6.25
2023-09-30T23:54:34.115Z,6.38
2023-09-30T23:57:00.682Z,6.88
